sensor_id;sensor_type;location;lat;lon;timestamp;P1;durP1;ratioP1;P2;durP2;ratioP2
52898;SDS011;38763;53.096;6.062;2024-03-08T00:00:10;41.50;;;19.48;;
52898;SDS011;38763;53.096;6.062;2024-03-08T00:02:47;37.28;;;19.35;;
52898;SDS011;38763;53.096;6.062;2024-03-08T00:05:15;36.83;;;18.70;;
52898;SDS011;38763;53.096;6.062;2024-03-08T00:07:41;38.90;;;19.30;;
52898;SDS011;38763;53.096;6.062;2024-03-08T00:10:09;43.38;;;20.30;;
52898;SDS011;38763;53.096;6.062;2024-03-08T00:12:45;37.83;;;18.55;;
52898;SDS011;38763;53.096;6.062;2024-03-08T00:15:15;39.25;;;20.52;;
52898;SDS011;38763;53.096;6.062;2024-03-08T00:17:42;40.00;;;20.48;;
52898;SDS011;38763;53.096;6.062;2024-03-08T00:20:08;41.90;;;20.60;;
52898;SDS011;38763;53.096;6.062;2024-03-08T00:22:34;40.58;;;20.40;;
52898;SDS011;38763;53.096;6.062;2024-03-08T00:25:01;39.03;;;19.98;;
52898;SDS011;38763;53.096;6.062;2024-03-08T00:27:30;39.78;;;20.00;;
52898;SDS011;38763;53.096;6.062;2024-03-08T00:29:59;35.42;;;19.25;;
52898;SDS011;38763;53.096;6.062;2024-03-08T00:32:25;40.03;;;21.20;;
52898;SDS011;38763;53.096;6.062;2024-03-08T00:34:52;37.45;;;20.42;;
52898;SDS011;38763;53.096;6.062;2024-03-08T00:37:21;39.70;;;19.75;;
52898;SDS011;38763;53.096;6.062;2024-03-08T00:39:50;40.38;;;20.63;;
52898;SDS011;38763;53.096;6.062;2024-03-08T00:42:16;39.78;;;20.88;;
52898;SDS011;38763;53.096;6.062;2024-03-08T00:44:43;39.05;;;20.75;;
52898;SDS011;38763;53.096;6.062;2024-03-08T00:47:08;40.45;;;20.70;;
52898;SDS011;38763;53.096;6.062;2024-03-08T00:49:34;42.20;;;20.25;;
52898;SDS011;38763;53.096;6.062;2024-03-08T00:52:03;38.80;;;19.27;;
52898;SDS011;38763;53.096;6.062;2024-03-08T00:54:32;42.65;;;21.13;;
52898;SDS011;38763;53.096;6.062;2024-03-08T00:56:58;41.15;;;20.63;;
52898;SDS011;38763;53.096;6.062;2024-03-08T00:59:23;41.58;;;21.30;;
52898;SDS011;38763;53.096;6.062;2024-03-08T01:01:49;41.75;;;21.58;;
52898;SDS011;38763;53.096;6.062;2024-03-08T01:04:15;44.85;;;20.77;;
52898;SDS011;38763;53.096;6.062;2024-03-08T01:06:40;41.40;;;20.42;;
52898;SDS011;38763;53.096;6.062;2024-03-08T01:09:07;45.47;;;21.25;;
52898;SDS011;38763;53.096;6.062;2024-03-08T01:11:34;43.95;;;21.17;;
52898;SDS011;38763;53.096;6.062;2024-03-08T01:14:00;47.60;;;22.08;;
52898;SDS011;38763;53.096;6.062;2024-03-08T01:16:26;47.28;;;22.65;;
52898;SDS011;38763;53.096;6.062;2024-03-08T01:18:51;42.40;;;21.10;;
52898;SDS011;38763;53.096;6.062;2024-03-08T01:21:17;49.25;;;23.45;;
52898;SDS011;38763;53.096;6.062;2024-03-08T01:23:43;49.72;;;22.15;;
52898;SDS011;38763;53.096;6.062;2024-03-08T01:26:08;49.00;;;23.33;;
52898;SDS011;38763;53.096;6.062;2024-03-08T01:28:34;45.97;;;23.25;;
52898;SDS011;38763;53.096;6.062;2024-03-08T01:31:00;46.65;;;22.55;;
52898;SDS011;38763;53.096;6.062;2024-03-08T01:33:26;51.95;;;23.08;;
52898;SDS011;38763;53.096;6.062;2024-03-08T01:35:52;43.75;;;23.35;;
52898;SDS011;38763;53.096;6.062;2024-03-08T01:38:19;46.10;;;22.80;;
52898;SDS011;38763;53.096;6.062;2024-03-08T01:40:48;50.35;;;24.05;;
52898;SDS011;38763;53.096;6.062;2024-03-08T01:43:20;46.97;;;23.75;;
52898;SDS011;38763;53.096;6.062;2024-03-08T01:45:59;46.83;;;24.20;;
52898;SDS011;38763;53.096;6.062;2024-03-08T01:48:25;49.85;;;23.75;;
52898;SDS011;38763;53.096;6.062;2024-03-08T01:50:52;48.55;;;23.63;;
52898;SDS011;38763;53.096;6.062;2024-03-08T01:53:19;47.80;;;23.20;;
52898;SDS011;38763;53.096;6.062;2024-03-08T01:55:46;46.75;;;22.88;;
52898;SDS011;38763;53.096;6.062;2024-03-08T01:58:13;47.80;;;22.65;;
52898;SDS011;38763;53.096;6.062;2024-03-08T02:00:43;47.15;;;23.88;;
52898;SDS011;38763;53.096;6.062;2024-03-08T02:03:11;49.33;;;24.00;;
52898;SDS011;38763;53.096;6.062;2024-03-08T02:05:38;49.70;;;23.65;;
52898;SDS011;38763;53.096;6.062;2024-03-08T02:08:06;47.10;;;22.75;;
52898;SDS011;38763;53.096;6.062;2024-03-08T02:10:33;50.20;;;24.55;;
52898;SDS011;38763;53.096;6.062;2024-03-08T02:12:59;48.53;;;23.55;;
52898;SDS011;38763;53.096;6.062;2024-03-08T02:18:15;47.05;;;23.88;;
52898;SDS011;38763;53.096;6.062;2024-03-08T02:20:42;50.92;;;24.65;;
52898;SDS011;38763;53.096;6.062;2024-03-08T02:23:08;51.92;;;24.88;;
52898;SDS011;38763;53.096;6.062;2024-03-08T02:25:34;51.30;;;24.77;;
52898;SDS011;38763;53.096;6.062;2024-03-08T02:28:00;52.53;;;25.85;;
52898;SDS011;38763;53.096;6.062;2024-03-08T02:30:26;56.20;;;25.35;;
52898;SDS011;38763;53.096;6.062;2024-03-08T02:32:54;50.10;;;24.10;;
52898;SDS011;38763;53.096;6.062;2024-03-08T02:35:20;53.60;;;24.10;;
52898;SDS011;38763;53.096;6.062;2024-03-08T02:37:46;52.13;;;25.48;;
52898;SDS011;38763;53.096;6.062;2024-03-08T02:40:13;51.25;;;24.70;;
52898;SDS011;38763;53.096;6.062;2024-03-08T02:42:39;52.17;;;24.13;;
52898;SDS011;38763;53.096;6.062;2024-03-08T02:45:05;52.60;;;25.95;;
52898;SDS011;38763;53.096;6.062;2024-03-08T02:47:31;50.28;;;23.55;;
52898;SDS011;38763;53.096;6.062;2024-03-08T02:49:57;48.97;;;23.95;;
52898;SDS011;38763;53.096;6.062;2024-03-08T02:52:22;48.63;;;24.27;;
52898;SDS011;38763;53.096;6.062;2024-03-08T02:54:48;54.88;;;24.10;;
52898;SDS011;38763;53.096;6.062;2024-03-08T02:57:17;55.80;;;23.52;;
52898;SDS011;38763;53.096;6.062;2024-03-08T02:59:43;52.00;;;24.88;;
52898;SDS011;38763;53.096;6.062;2024-03-08T03:02:10;51.78;;;23.38;;
52898;SDS011;38763;53.096;6.062;2024-03-08T03:04:35;54.75;;;25.60;;
52898;SDS011;38763;53.096;6.062;2024-03-08T03:07:01;51.40;;;23.40;;
52898;SDS011;38763;53.096;6.062;2024-03-08T03:09:26;50.15;;;23.58;;
52898;SDS011;38763;53.096;6.062;2024-03-08T03:11:53;48.00;;;23.65;;
52898;SDS011;38763;53.096;6.062;2024-03-08T03:14:20;52.47;;;24.95;;
52898;SDS011;38763;53.096;6.062;2024-03-08T03:16:47;48.60;;;23.92;;
52898;SDS011;38763;53.096;6.062;2024-03-08T03:19:12;51.08;;;23.98;;
52898;SDS011;38763;53.096;6.062;2024-03-08T03:21:41;52.00;;;22.95;;
52898;SDS011;38763;53.096;6.062;2024-03-08T03:24:08;51.83;;;24.85;;
52898;SDS011;38763;53.096;6.062;2024-03-08T03:26:37;51.83;;;24.70;;
52898;SDS011;38763;53.096;6.062;2024-03-08T03:29:07;53.70;;;24.67;;
52898;SDS011;38763;53.096;6.062;2024-03-08T03:31:34;53.38;;;25.63;;
52898;SDS011;38763;53.096;6.062;2024-03-08T03:34:01;52.03;;;25.02;;
52898;SDS011;38763;53.096;6.062;2024-03-08T03:36:29;53.17;;;25.25;;
52898;SDS011;38763;53.096;6.062;2024-03-08T03:38:55;54.75;;;24.88;;
52898;SDS011;38763;53.096;6.062;2024-03-08T03:41:50;51.47;;;23.58;;
52898;SDS011;38763;53.096;6.062;2024-03-08T03:44:17;49.92;;;25.17;;
52898;SDS011;38763;53.096;6.062;2024-03-08T03:46:43;55.67;;;23.60;;
52898;SDS011;38763;53.096;6.062;2024-03-08T03:49:09;50.22;;;24.30;;
52898;SDS011;38763;53.096;6.062;2024-03-08T03:51:35;45.80;;;23.90;;
52898;SDS011;38763;53.096;6.062;2024-03-08T03:54:00;50.33;;;24.13;;
52898;SDS011;38763;53.096;6.062;2024-03-08T03:56:31;50.28;;;25.17;;
52898;SDS011;38763;53.096;6.062;2024-03-08T03:58:57;51.10;;;24.80;;
52898;SDS011;38763;53.096;6.062;2024-03-08T04:01:22;47.55;;;23.60;;
52898;SDS011;38763;53.096;6.062;2024-03-08T04:03:49;48.38;;;24.00;;
52898;SDS011;38763;53.096;6.062;2024-03-08T04:06:14;48.30;;;25.27;;
52898;SDS011;38763;53.096;6.062;2024-03-08T04:08:40;51.95;;;23.95;;
52898;SDS011;38763;53.096;6.062;2024-03-08T04:11:06;51.28;;;23.90;;
52898;SDS011;38763;53.096;6.062;2024-03-08T04:13:33;49.05;;;23.40;;
52898;SDS011;38763;53.096;6.062;2024-03-08T04:15:59;48.60;;;24.58;;
52898;SDS011;38763;53.096;6.062;2024-03-08T04:18:25;52.58;;;25.00;;
52898;SDS011;38763;53.096;6.062;2024-03-08T04:20:51;47.42;;;23.85;;
52898;SDS011;38763;53.096;6.062;2024-03-08T04:23:16;47.42;;;22.95;;
52898;SDS011;38763;53.096;6.062;2024-03-08T04:25:43;47.75;;;24.38;;
52898;SDS011;38763;53.096;6.062;2024-03-08T04:28:09;52.05;;;24.25;;
52898;SDS011;38763;53.096;6.062;2024-03-08T04:30:37;45.20;;;22.77;;
52898;SDS011;38763;53.096;6.062;2024-03-08T04:33:03;45.97;;;23.80;;
52898;SDS011;38763;53.096;6.062;2024-03-08T04:35:29;48.80;;;22.98;;
52898;SDS011;38763;53.096;6.062;2024-03-08T04:37:55;47.65;;;23.63;;
52898;SDS011;38763;53.096;6.062;2024-03-08T04:40:22;49.10;;;22.30;;
52898;SDS011;38763;53.096;6.062;2024-03-08T04:42:48;48.20;;;22.40;;
52898;SDS011;38763;53.096;6.062;2024-03-08T04:45:16;45.90;;;21.98;;
52898;SDS011;38763;53.096;6.062;2024-03-08T04:47:42;44.25;;;22.08;;
52898;SDS011;38763;53.096;6.062;2024-03-08T04:50:08;46.03;;;23.27;;
52898;SDS011;38763;53.096;6.062;2024-03-08T04:52:34;48.30;;;23.17;;
52898;SDS011;38763;53.096;6.062;2024-03-08T04:55:00;46.25;;;22.58;;
52898;SDS011;38763;53.096;6.062;2024-03-08T04:57:29;50.15;;;23.33;;
52898;SDS011;38763;53.096;6.062;2024-03-08T04:59:55;45.08;;;23.17;;
52898;SDS011;38763;53.096;6.062;2024-03-08T05:02:20;45.55;;;22.42;;
52898;SDS011;38763;53.096;6.062;2024-03-08T05:04:47;46.40;;;23.23;;
52898;SDS011;38763;53.096;6.062;2024-03-08T05:07:13;47.78;;;23.88;;
52898;SDS011;38763;53.096;6.062;2024-03-08T05:09:39;43.88;;;22.40;;
52898;SDS011;38763;53.096;6.062;2024-03-08T05:12:06;46.45;;;22.75;;
52898;SDS011;38763;53.096;6.062;2024-03-08T05:14:33;48.33;;;23.05;;
52898;SDS011;38763;53.096;6.062;2024-03-08T05:17:00;46.40;;;22.88;;
52898;SDS011;38763;53.096;6.062;2024-03-08T05:19:26;49.65;;;22.65;;
52898;SDS011;38763;53.096;6.062;2024-03-08T05:21:51;44.83;;;22.73;;
52898;SDS011;38763;53.096;6.062;2024-03-08T05:24:17;49.08;;;22.38;;
52898;SDS011;38763;53.096;6.062;2024-03-08T05:26:44;42.88;;;21.25;;
52898;SDS011;38763;53.096;6.062;2024-03-08T05:29:10;46.45;;;23.00;;
52898;SDS011;38763;53.096;6.062;2024-03-08T05:31:57;45.90;;;22.60;;
52898;SDS011;38763;53.096;6.062;2024-03-08T05:34:23;45.60;;;22.30;;
52898;SDS011;38763;53.096;6.062;2024-03-08T05:36:49;44.97;;;23.23;;
52898;SDS011;38763;53.096;6.062;2024-03-08T05:39:16;45.22;;;21.95;;
52898;SDS011;38763;53.096;6.062;2024-03-08T05:41:43;43.65;;;22.17;;
52898;SDS011;38763;53.096;6.062;2024-03-08T05:44:09;43.65;;;20.25;;
52898;SDS011;38763;53.096;6.062;2024-03-08T05:46:35;46.67;;;22.00;;
52898;SDS011;38763;53.096;6.062;2024-03-08T05:49:02;43.17;;;22.70;;
52898;SDS011;38763;53.096;6.062;2024-03-08T05:51:34;49.15;;;22.98;;
52898;SDS011;38763;53.096;6.062;2024-03-08T05:54:01;48.17;;;22.98;;
52898;SDS011;38763;53.096;6.062;2024-03-08T05:56:33;44.90;;;22.77;;
52898;SDS011;38763;53.096;6.062;2024-03-08T05:59:02;48.40;;;23.40;;
52898;SDS011;38763;53.096;6.062;2024-03-08T06:01:34;46.22;;;22.52;;
52898;SDS011;38763;53.096;6.062;2024-03-08T06:04:01;47.90;;;23.27;;
52898;SDS011;38763;53.096;6.062;2024-03-08T06:06:28;47.28;;;21.92;;
52898;SDS011;38763;53.096;6.062;2024-03-08T06:08:53;47.90;;;22.48;;
52898;SDS011;38763;53.096;6.062;2024-03-08T06:11:21;45.90;;;21.60;;
52898;SDS011;38763;53.096;6.062;2024-03-08T06:13:47;46.15;;;23.15;;
52898;SDS011;38763;53.096;6.062;2024-03-08T06:16:13;43.95;;;22.33;;
52898;SDS011;38763;53.096;6.062;2024-03-08T06:18:39;48.78;;;22.50;;
52898;SDS011;38763;53.096;6.062;2024-03-08T06:21:05;44.33;;;22.40;;
52898;SDS011;38763;53.096;6.062;2024-03-08T06:23:34;46.80;;;23.85;;
52898;SDS011;38763;53.096;6.062;2024-03-08T06:26:03;47.50;;;22.60;;
52898;SDS011;38763;53.096;6.062;2024-03-08T06:28:29;51.47;;;23.83;;
52898;SDS011;38763;53.096;6.062;2024-03-08T06:30:57;42.90;;;20.80;;
52898;SDS011;38763;53.096;6.062;2024-03-08T06:33:26;45.78;;;21.80;;
52898;SDS011;38763;53.096;6.062;2024-03-08T06:35:53;43.58;;;22.45;;
52898;SDS011;38763;53.096;6.062;2024-03-08T06:38:22;48.33;;;22.35;;
52898;SDS011;38763;53.096;6.062;2024-03-08T06:40:48;47.97;;;22.42;;
52898;SDS011;38763;53.096;6.062;2024-03-08T06:43:16;45.83;;;22.15;;
52898;SDS011;38763;53.096;6.062;2024-03-08T06:45:43;44.95;;;21.52;;
52898;SDS011;38763;53.096;6.062;2024-03-08T06:48:14;46.78;;;21.33;;
52898;SDS011;38763;53.096;6.062;2024-03-08T06:50:40;46.30;;;23.98;;
52898;SDS011;38763;53.096;6.062;2024-03-08T06:53:06;45.78;;;22.63;;
52898;SDS011;38763;53.096;6.062;2024-03-08T06:55:31;43.28;;;22.17;;
52898;SDS011;38763;53.096;6.062;2024-03-08T06:57:58;49.72;;;23.23;;
52898;SDS011;38763;53.096;6.062;2024-03-08T07:00:23;38.63;;;20.10;;
52898;SDS011;38763;53.096;6.062;2024-03-08T07:02:52;41.88;;;21.27;;
52898;SDS011;38763;53.096;6.062;2024-03-08T07:05:19;41.55;;;21.10;;
52898;SDS011;38763;53.096;6.062;2024-03-08T07:07:44;45.05;;;22.33;;
52898;SDS011;38763;53.096;6.062;2024-03-08T07:10:13;49.50;;;22.67;;
52898;SDS011;38763;53.096;6.062;2024-03-08T07:12:40;42.50;;;22.15;;
52898;SDS011;38763;53.096;6.062;2024-03-08T07:15:07;39.92;;;20.45;;
52898;SDS011;38763;53.096;6.062;2024-03-08T07:17:33;44.15;;;22.08;;
52898;SDS011;38763;53.096;6.062;2024-03-08T07:20:00;41.03;;;21.52;;
52898;SDS011;38763;53.096;6.062;2024-03-08T07:22:32;43.75;;;21.50;;
52898;SDS011;38763;53.096;6.062;2024-03-08T07:24:58;41.28;;;21.75;;
52898;SDS011;38763;53.096;6.062;2024-03-08T07:27:33;42.75;;;21.45;;
52898;SDS011;38763;53.096;6.062;2024-03-08T07:30:04;39.35;;;20.85;;
52898;SDS011;38763;53.096;6.062;2024-03-08T07:32:30;40.33;;;20.70;;
52898;SDS011;38763;53.096;6.062;2024-03-08T07:34:56;39.97;;;20.80;;
52898;SDS011;38763;53.096;6.062;2024-03-08T07:37:23;41.50;;;20.60;;
52898;SDS011;38763;53.096;6.062;2024-03-08T07:39:49;40.80;;;20.85;;
52898;SDS011;38763;53.096;6.062;2024-03-08T07:42:15;39.50;;;20.50;;
52898;SDS011;38763;53.096;6.062;2024-03-08T07:44:44;40.70;;;20.88;;
52898;SDS011;38763;53.096;6.062;2024-03-08T07:47:13;44.47;;;21.02;;
52898;SDS011;38763;53.096;6.062;2024-03-08T07:49:39;40.38;;;20.77;;
52898;SDS011;38763;53.096;6.062;2024-03-08T07:52:05;38.88;;;20.00;;
52898;SDS011;38763;53.096;6.062;2024-03-08T07:54:32;40.95;;;20.52;;
52898;SDS011;38763;53.096;6.062;2024-03-08T07:57:00;37.00;;;19.30;;
52898;SDS011;38763;53.096;6.062;2024-03-08T07:59:28;38.00;;;19.67;;
52898;SDS011;38763;53.096;6.062;2024-03-08T08:01:54;39.10;;;20.15;;
52898;SDS011;38763;53.096;6.062;2024-03-08T08:04:20;42.90;;;21.52;;
52898;SDS011;38763;53.096;6.062;2024-03-08T08:06:49;35.38;;;20.13;;
52898;SDS011;38763;53.096;6.062;2024-03-08T08:09:16;36.78;;;20.13;;
52898;SDS011;38763;53.096;6.062;2024-03-08T08:11:53;42.05;;;20.80;;
52898;SDS011;38763;53.096;6.062;2024-03-08T08:14:21;35.45;;;19.90;;
52898;SDS011;38763;53.096;6.062;2024-03-08T08:16:47;41.35;;;21.50;;
52898;SDS011;38763;53.096;6.062;2024-03-08T08:19:15;41.28;;;20.70;;
52898;SDS011;38763;53.096;6.062;2024-03-08T08:21:41;35.08;;;20.38;;
52898;SDS011;38763;53.096;6.062;2024-03-08T08:24:06;38.60;;;21.60;;
52898;SDS011;38763;53.096;6.062;2024-03-08T08:26:32;38.15;;;19.92;;
52898;SDS011;38763;53.096;6.062;2024-03-08T08:28:59;37.25;;;19.60;;
52898;SDS011;38763;53.096;6.062;2024-03-08T08:31:24;33.92;;;19.95;;
52898;SDS011;38763;53.096;6.062;2024-03-08T08:33:51;39.67;;;21.10;;
52898;SDS011;38763;53.096;6.062;2024-03-08T08:36:22;37.83;;;20.45;;
52898;SDS011;38763;53.096;6.062;2024-03-08T08:38:49;38.75;;;19.85;;
52898;SDS011;38763;53.096;6.062;2024-03-08T08:41:14;36.05;;;20.27;;
52898;SDS011;38763;53.096;6.062;2024-03-08T08:43:42;36.75;;;20.40;;
52898;SDS011;38763;53.096;6.062;2024-03-08T08:46:09;36.50;;;19.23;;
52898;SDS011;38763;53.096;6.062;2024-03-08T08:48:41;38.22;;;21.00;;
52898;SDS011;38763;53.096;6.062;2024-03-08T08:51:09;37.78;;;20.02;;
52898;SDS011;38763;53.096;6.062;2024-03-08T08:53:38;32.17;;;19.23;;
52898;SDS011;38763;53.096;6.062;2024-03-08T08:56:12;37.28;;;19.42;;
52898;SDS011;38763;53.096;6.062;2024-03-08T08:58:40;34.20;;;19.38;;
52898;SDS011;38763;53.096;6.062;2024-03-08T09:01:08;38.67;;;20.08;;
52898;SDS011;38763;53.096;6.062;2024-03-08T09:03:35;33.83;;;18.55;;
52898;SDS011;38763;53.096;6.062;2024-03-08T09:06:06;34.53;;;19.63;;
52898;SDS011;38763;53.096;6.062;2024-03-08T09:08:35;34.83;;;19.75;;
52898;SDS011;38763;53.096;6.062;2024-03-08T09:11:03;34.35;;;20.27;;
52898;SDS011;38763;53.096;6.062;2024-03-08T09:13:29;38.38;;;19.30;;
52898;SDS011;38763;53.096;6.062;2024-03-08T09:15:54;36.72;;;19.98;;
52898;SDS011;38763;53.096;6.062;2024-03-08T09:18:20;32.45;;;18.85;;
52898;SDS011;38763;53.096;6.062;2024-03-08T09:20:46;34.90;;;20.38;;
52898;SDS011;38763;53.096;6.062;2024-03-08T09:23:12;34.22;;;19.27;;
52898;SDS011;38763;53.096;6.062;2024-03-08T09:25:38;34.75;;;19.92;;
52898;SDS011;38763;53.096;6.062;2024-03-08T09:28:03;37.15;;;20.85;;
52898;SDS011;38763;53.096;6.062;2024-03-08T09:30:31;35.42;;;20.58;;
52898;SDS011;38763;53.096;6.062;2024-03-08T09:32:56;36.13;;;20.55;;
52898;SDS011;38763;53.096;6.062;2024-03-08T09:35:22;35.38;;;20.90;;
52898;SDS011;38763;53.096;6.062;2024-03-08T09:37:47;32.28;;;19.80;;
52898;SDS011;38763;53.096;6.062;2024-03-08T09:40:16;33.28;;;19.55;;
52898;SDS011;38763;53.096;6.062;2024-03-08T09:42:45;34.38;;;17.95;;
52898;SDS011;38763;53.096;6.062;2024-03-08T09:45:13;33.40;;;19.90;;
52898;SDS011;38763;53.096;6.062;2024-03-08T09:47:42;32.88;;;18.75;;
52898;SDS011;38763;53.096;6.062;2024-03-08T09:50:09;34.25;;;18.30;;
52898;SDS011;38763;53.096;6.062;2024-03-08T09:52:36;32.60;;;19.88;;
52898;SDS011;38763;53.096;6.062;2024-03-08T09:55:04;32.75;;;19.23;;
52898;SDS011;38763;53.096;6.062;2024-03-08T09:57:31;31.65;;;18.92;;
52898;SDS011;38763;53.096;6.062;2024-03-08T10:00:01;34.10;;;19.17;;
52898;SDS011;38763;53.096;6.062;2024-03-08T10:02:32;35.10;;;20.00;;
52898;SDS011;38763;53.096;6.062;2024-03-08T10:04:59;34.75;;;20.15;;
52898;SDS011;38763;53.096;6.062;2024-03-08T10:07:28;31.52;;;19.15;;
52898;SDS011;38763;53.096;6.062;2024-03-08T10:09:54;33.90;;;19.55;;
52898;SDS011;38763;53.096;6.062;2024-03-08T10:12:19;32.22;;;17.33;;
52898;SDS011;38763;53.096;6.062;2024-03-08T10:14:45;37.17;;;20.35;;
52898;SDS011;38763;53.096;6.062;2024-03-08T10:17:11;35.47;;;20.63;;
52898;SDS011;38763;53.096;6.062;2024-03-08T10:19:37;30.40;;;17.00;;
52898;SDS011;38763;53.096;6.062;2024-03-08T10:22:04;34.33;;;20.75;;
52898;SDS011;38763;53.096;6.062;2024-03-08T10:24:30;34.53;;;20.48;;
52898;SDS011;38763;53.096;6.062;2024-03-08T10:26:59;38.63;;;21.35;;
52898;SDS011;38763;53.096;6.062;2024-03-08T10:29:26;33.15;;;20.50;;
52898;SDS011;38763;53.096;6.062;2024-03-08T10:31:53;36.28;;;20.88;;
52898;SDS011;38763;53.096;6.062;2024-03-08T10:34:21;33.97;;;20.85;;
52898;SDS011;38763;53.096;6.062;2024-03-08T10:36:48;33.40;;;19.73;;
52898;SDS011;38763;53.096;6.062;2024-03-08T10:39:23;35.75;;;20.38;;
52898;SDS011;38763;53.096;6.062;2024-03-08T10:41:53;33.58;;;17.52;;
52898;SDS011;38763;53.096;6.062;2024-03-08T10:49:30;34.97;;;20.30;;
52898;SDS011;38763;53.096;6.062;2024-03-08T10:52:12;33.57;;;19.63;;
52898;SDS011;38763;53.096;6.062;2024-03-08T10:54:40;34.45;;;21.20;;
52898;SDS011;38763;53.096;6.062;2024-03-08T10:57:07;32.88;;;20.08;;
52898;SDS011;38763;53.096;6.062;2024-03-08T10:59:36;34.10;;;20.60;;
52898;SDS011;38763;53.096;6.062;2024-03-08T11:02:04;32.45;;;20.35;;
52898;SDS011;38763;53.096;6.062;2024-03-08T11:04:31;33.85;;;21.23;;
52898;SDS011;38763;53.096;6.062;2024-03-08T11:07:01;36.97;;;21.88;;
52898;SDS011;38763;53.096;6.062;2024-03-08T11:09:31;33.80;;;19.15;;
52898;SDS011;38763;53.096;6.062;2024-03-08T11:14:50;41.40;;;22.42;;
52898;SDS011;38763;53.096;6.062;2024-03-08T11:19:57;35.25;;;21.45;;
52898;SDS011;38763;53.096;6.062;2024-03-08T11:22:27;33.60;;;20.10;;
52898;SDS011;38763;53.096;6.062;2024-03-08T11:25:05;31.55;;;18.35;;
52898;SDS011;38763;53.096;6.062;2024-03-08T11:27:35;31.50;;;19.73;;
52898;SDS011;38763;53.096;6.062;2024-03-08T11:30:05;37.38;;;20.10;;
52898;SDS011;38763;53.096;6.062;2024-03-08T11:32:50;31.70;;;19.50;;
52898;SDS011;38763;53.096;6.062;2024-03-08T11:35:21;35.22;;;19.90;;
52898;SDS011;38763;53.096;6.062;2024-03-08T11:37:50;31.95;;;18.35;;
52898;SDS011;38763;53.096;6.062;2024-03-08T11:40:15;33.17;;;20.38;;
52898;SDS011;38763;53.096;6.062;2024-03-08T11:42:45;35.80;;;21.40;;
52898;SDS011;38763;53.096;6.062;2024-03-08T11:45:17;32.47;;;20.30;;
52898;SDS011;38763;53.096;6.062;2024-03-08T11:47:46;32.13;;;20.88;;
52898;SDS011;38763;53.096;6.062;2024-03-08T11:50:12;33.78;;;20.65;;
52898;SDS011;38763;53.096;6.062;2024-03-08T11:52:39;32.80;;;20.70;;
52898;SDS011;38763;53.096;6.062;2024-03-08T11:55:05;31.55;;;19.15;;
52898;SDS011;38763;53.096;6.062;2024-03-08T11:57:31;33.92;;;19.85;;
52898;SDS011;38763;53.096;6.062;2024-03-08T11:59:58;32.53;;;20.85;;
52898;SDS011;38763;53.096;6.062;2024-03-08T12:02:32;33.15;;;19.65;;
52898;SDS011;38763;53.096;6.062;2024-03-08T12:05:02;32.83;;;19.38;;
52898;SDS011;38763;53.096;6.062;2024-03-08T12:07:32;31.00;;;20.33;;
52898;SDS011;38763;53.096;6.062;2024-03-08T12:12:51;31.23;;;19.33;;
52898;SDS011;38763;53.096;6.062;2024-03-08T12:15:21;33.72;;;20.25;;
52898;SDS011;38763;53.096;6.062;2024-03-08T12:17:49;30.83;;;19.65;;
52898;SDS011;38763;53.096;6.062;2024-03-08T12:20:19;34.65;;;20.13;;
52898;SDS011;38763;53.096;6.062;2024-03-08T12:22:47;29.55;;;19.48;;
52898;SDS011;38763;53.096;6.062;2024-03-08T12:25:14;31.15;;;20.38;;
52898;SDS011;38763;53.096;6.062;2024-03-08T12:27:40;31.20;;;19.30;;
52898;SDS011;38763;53.096;6.062;2024-03-08T12:32:50;33.05;;;20.55;;
52898;SDS011;38763;53.096;6.062;2024-03-08T12:35:24;34.63;;;20.40;;
52898;SDS011;38763;53.096;6.062;2024-03-08T12:37:57;31.58;;;19.92;;
52898;SDS011;38763;53.096;6.062;2024-03-08T12:40:28;32.08;;;19.23;;
52898;SDS011;38763;53.096;6.062;2024-03-08T12:43:03;33.30;;;19.15;;
52898;SDS011;38763;53.096;6.062;2024-03-08T12:45:30;33.17;;;19.05;;
52898;SDS011;38763;53.096;6.062;2024-03-08T12:47:56;33.35;;;18.55;;
52898;SDS011;38763;53.096;6.062;2024-03-08T12:50:24;33.00;;;20.23;;
52898;SDS011;38763;53.096;6.062;2024-03-08T12:52:52;31.77;;;19.55;;
52898;SDS011;38763;53.096;6.062;2024-03-08T12:55:18;32.58;;;19.80;;
52898;SDS011;38763;53.096;6.062;2024-03-08T12:57:44;30.48;;;19.77;;
52898;SDS011;38763;53.096;6.062;2024-03-08T13:00:12;30.25;;;19.42;;
52898;SDS011;38763;53.096;6.062;2024-03-08T13:02:48;29.08;;;18.08;;
52898;SDS011;38763;53.096;6.062;2024-03-08T13:05:16;32.60;;;20.15;;
52898;SDS011;38763;53.096;6.062;2024-03-08T13:07:44;33.70;;;19.98;;
52898;SDS011;38763;53.096;6.062;2024-03-08T13:10:12;30.88;;;19.60;;
52898;SDS011;38763;53.096;6.062;2024-03-08T13:12:42;31.70;;;19.00;;
52898;SDS011;38763;53.096;6.062;2024-03-08T13:15:08;30.17;;;18.98;;
52898;SDS011;38763;53.096;6.062;2024-03-08T13:17:45;30.25;;;19.52;;
52898;SDS011;38763;53.096;6.062;2024-03-08T13:20:13;31.67;;;19.35;;
52898;SDS011;38763;53.096;6.062;2024-03-08T13:22:43;28.70;;;18.80;;
52898;SDS011;38763;53.096;6.062;2024-03-08T13:25:10;28.92;;;17.88;;
52898;SDS011;38763;53.096;6.062;2024-03-08T13:27:39;27.55;;;17.85;;
52898;SDS011;38763;53.096;6.062;2024-03-08T13:30:07;29.67;;;18.33;;
52898;SDS011;38763;53.096;6.062;2024-03-08T13:32:38;30.10;;;18.35;;
52898;SDS011;38763;53.096;6.062;2024-03-08T13:35:10;31.10;;;19.33;;
52898;SDS011;38763;53.096;6.062;2024-03-08T13:37:42;28.92;;;18.20;;
52898;SDS011;38763;53.096;6.062;2024-03-08T13:40:17;28.48;;;18.10;;
52898;SDS011;38763;53.096;6.062;2024-03-08T13:42:46;30.65;;;19.35;;
52898;SDS011;38763;53.096;6.062;2024-03-08T13:45:13;30.23;;;19.20;;
52898;SDS011;38763;53.096;6.062;2024-03-08T13:47:42;26.85;;;16.85;;
52898;SDS011;38763;53.096;6.062;2024-03-08T13:50:09;28.92;;;18.38;;
52898;SDS011;38763;53.096;6.062;2024-03-08T13:52:41;29.67;;;18.85;;
52898;SDS011;38763;53.096;6.062;2024-03-08T13:55:09;29.42;;;18.95;;
52898;SDS011;38763;53.096;6.062;2024-03-08T13:57:35;29.90;;;17.48;;
52898;SDS011;38763;53.096;6.062;2024-03-08T14:00:04;28.38;;;17.95;;
52898;SDS011;38763;53.096;6.062;2024-03-08T14:02:32;26.88;;;17.42;;
52898;SDS011;38763;53.096;6.062;2024-03-08T14:04:58;28.55;;;17.15;;
52898;SDS011;38763;53.096;6.062;2024-03-08T14:07:27;26.10;;;17.48;;
52898;SDS011;38763;53.096;6.062;2024-03-08T14:09:54;25.25;;;15.85;;
52898;SDS011;38763;53.096;6.062;2024-03-08T14:12:20;26.25;;;16.52;;
52898;SDS011;38763;53.096;6.062;2024-03-08T14:14:45;26.85;;;17.17;;
52898;SDS011;38763;53.096;6.062;2024-03-08T14:17:11;26.60;;;17.13;;
52898;SDS011;38763;53.096;6.062;2024-03-08T14:19:42;27.45;;;17.63;;
52898;SDS011;38763;53.096;6.062;2024-03-08T14:22:07;26.30;;;17.02;;
52898;SDS011;38763;53.096;6.062;2024-03-08T14:24:36;30.08;;;17.95;;
52898;SDS011;38763;53.096;6.062;2024-03-08T14:27:02;26.60;;;17.15;;
52898;SDS011;38763;53.096;6.062;2024-03-08T14:29:28;25.13;;;15.07;;
52898;SDS011;38763;53.096;6.062;2024-03-08T14:31:57;25.70;;;16.20;;
52898;SDS011;38763;53.096;6.062;2024-03-08T14:34:24;27.95;;;16.85;;
52898;SDS011;38763;53.096;6.062;2024-03-08T14:36:54;23.80;;;15.75;;
52898;SDS011;38763;53.096;6.062;2024-03-08T14:39:20;24.85;;;15.82;;
52898;SDS011;38763;53.096;6.062;2024-03-08T14:41:50;26.92;;;17.10;;